^^
Meteo Knjazevac Station Historical Data
Daily Summary for June 7, 2021 Units:  Both    English   Metric
Daily Weekly Monthly Yearly Custom
  High: Low: Average:
Temperature: 69.6 °F /  20.9 °C 58.5 °F /  14.7 °C 62.2 °F /  16.8 °C
Dew Point: 64.9 °F /  18.3 °C 56.7 °F /  13.7 °C 59.4 °F /  15.2 °C
Humidity: 96% 83% 91%
Wind Speed: 2mph /  3.2km/h - 0.9mph /  1.4km/h
Wind Gust: 5mph /  8km/h - -
Wind- - WNW
Pressure: 30.08 in /  1018.5 hPa 30.04 in /  1017.2 hPa -
Precipitation: 0.00 in /  0 mm    
Historical Graphs
 
 
Tabular Data for June 7, 2021
Time Temperature Dew Point Pressure Wind Wind Speed Wind Gust Humidity Rainfall Rate (Hourly) solar Conditions
00:00 66.9 °F /  19.4 °C 61.6 °F /  16.4 °C 30.04in /  1017.2hPa West 1mph /  1.6km/h 2mph /  3.2km/h 83% 0.00in /  0mm 0 W/m2
00:10 66.4 °F /  19.1 °C 61.4 °F /  16.3 °C 30.04in /  1017.2hPa Calm   2mph /  3.2km/h 84% 0.00in /  0mm 0 W/m2
00:20 65.9 °F /  18.8 °C 60.9 °F /  16.1 °C 30.04in /  1017.2hPa NW 1mph /  1.6km/h 1mph /  1.6km/h 84% 0.00in /  0mm 0 W/m2
00:30 65.3 °F /  18.5 °C 60.7 °F /  15.9 °C 30.04in /  1017.2hPa West 1mph /  1.6km/h 3mph /  4.8km/h 85% 0.00in /  0mm 0 W/m2
00:40 65.1 °F /  18.4 °C 60.5 °F /  15.8 °C 30.04in /  1017.2hPa NW 1mph /  1.6km/h 3mph /  4.8km/h 85% 0.00in /  0mm 0 W/m2
00:50 65.1 °F /  18.4 °C 60.5 °F /  15.8 °C 30.04in /  1017.2hPa Calm   2mph /  3.2km/h 85% 0.00in /  0mm 0 W/m2
01:00 64.8 °F /  18.2 °C 60.5 °F /  15.8 °C 30.04in /  1017.2hPa West 1mph /  1.6km/h 2mph /  3.2km/h 86% 0.00in /  0mm 0 W/m2
01:10 64.4 °F /  18 °C 60.1 °F /  15.6 °C 30.04in /  1017.2hPa WNW 1mph /  1.6km/h 2mph /  3.2km/h 86% 0.00in /  0mm 0 W/m2
01:20 64.2 °F /  17.9 °C 59.9 °F /  15.5 °C 30.04in /  1017.2hPa Calm   2mph /  3.2km/h 86% 0.00in /  0mm 0 W/m2
01:30 63.6 °F /  17.6 °C 59.9 °F /  15.5 °C 30.04in /  1017.2hPa Calm   2mph /  3.2km/h 88% 0.00in /  0mm 0 W/m2
01:40 63.1 °F /  17.3 °C 59.5 °F /  15.3 °C 30.04in /  1017.2hPa Calm   2mph /  3.2km/h 88% 0.00in /  0mm 0 W/m2
01:50 62.8 °F /  17.1 °C 59.5 °F /  15.3 °C 30.04in /  1017.2hPa WSW 1mph /  1.6km/h 3mph /  4.8km/h 89% 0.00in /  0mm 0 W/m2
02:00 62.6 °F /  17 °C 59.3 °F /  15.2 °C 30.04in /  1017.2hPa WNW 2mph /  3.2km/h 5mph /  8km/h 89% 0.00in /  0mm 0 W/m2
02:10 62.6 °F /  17 °C 59.3 °F /  15.2 °C 30.04in /  1017.2hPa West 2mph /  3.2km/h 4mph /  6.4km/h 89% 0.00in /  0mm 0 W/m2
02:20 62.3 °F /  16.8 °C 59 °F /  15 °C 30.04in /  1017.2hPa West 1mph /  1.6km/h 3mph /  4.8km/h 89% 0.00in /  0mm 0 W/m2
02:30 62.1 °F /  16.7 °C 59.1 °F /  15.1 °C 30.04in /  1017.2hPa Calm   2mph /  3.2km/h 90% 0.00in /  0mm 0 W/m2
02:40 61.7 °F /  16.5 °C 58.7 °F /  14.8 °C 30.04in /  1017.2hPa WSW 1mph /  1.6km/h 3mph /  4.8km/h 90% 0.00in /  0mm 0 W/m2
02:50 61.3 °F /  16.3 °C 58.4 °F /  14.7 °C 30.04in /  1017.2hPa West 1mph /  1.6km/h 2mph /  3.2km/h 90% 0.00in /  0mm 0 W/m2
03:00 61 °F /  16.1 °C 58 °F /  14.4 °C 30.04in /  1017.2hPa Calm   2mph /  3.2km/h 90% 0.00in /  0mm 0 W/m2
03:10 60.7 °F /  15.9 °C 58 °F /  14.4 °C 30.05in /  1017.5hPa WNW 1mph /  1.6km/h 2mph /  3.2km/h 91% 0.00in /  0mm 0 W/m2
03:20 60.6 °F /  15.9 °C 58.6 °F /  14.8 °C 30.05in /  1017.5hPa NW 1mph /  1.6km/h 3mph /  4.8km/h 93% 0.00in /  0mm 0 W/m2
03:30 60.6 °F /  15.9 °C 58 °F /  14.4 °C 30.05in /  1017.5hPa Calm   3mph /  4.8km/h 91% 0.00in /  0mm 0 W/m2
03:40 60.4 °F /  15.8 °C 57.8 °F /  14.3 °C 30.05in /  1017.5hPa Calm   2mph /  3.2km/h 91% 0.00in /  0mm 0 W/m2
03:50 60.1 °F /  15.6 °C 57.4 °F /  14.1 °C 30.05in /  1017.5hPa WNW 2mph /  3.2km/h 3mph /  4.8km/h 91% 0.00in /  0mm 0 W/m2
04:00 59.9 °F /  15.5 °C 57.9 °F /  14.4 °C 30.05in /  1017.5hPa West 2mph /  3.2km/h 5mph /  8km/h 93% 0.00in /  0mm 0 W/m2
04:10 59.7 °F /  15.4 °C 57.7 °F /  14.3 °C 30.05in /  1017.5hPa WSW 2mph /  3.2km/h 4mph /  6.4km/h 93% 0.00in /  0mm 0 W/m2
04:20 59.4 °F /  15.2 °C 57.4 °F /  14.1 °C 30.05in /  1017.5hPa WNW 1mph /  1.6km/h 2mph /  3.2km/h 93% 0.00in /  0mm 0 W/m2
04:30 59.4 °F /  15.2 °C 57.3 °F /  14.1 °C 30.06in /  1017.8hPa West 1mph /  1.6km/h 3mph /  4.8km/h 93% 0.00in /  0mm 0 W/m2
04:40 59.2 °F /  15.1 °C 57.2 °F /  14 °C 30.06in /  1017.8hPa Calm   2mph /  3.2km/h 93% 0.00in /  0mm 0 W/m2
04:50 58.8 °F /  14.9 °C 57.1 °F /  13.9 °C 30.06in /  1017.8hPa WNW 1mph /  1.6km/h 3mph /  4.8km/h 94% 0.00in /  0mm 0 W/m2
05:00 58.8 °F /  14.9 °C 57.1 °F /  13.9 °C 30.06in /  1017.8hPa WNW 1mph /  1.6km/h 2mph /  3.2km/h 94% 0.00in /  0mm 4 W/m2
05:10 58.6 °F /  14.8 °C 56.9 °F /  13.8 °C 30.06in /  1017.8hPa WNW 1mph /  1.6km/h 2mph /  3.2km/h 94% 0.00in /  0mm 10 W/m2
05:20 58.5 °F /  14.7 °C 56.7 °F /  13.7 °C 30.06in /  1017.8hPa West 1mph /  1.6km/h 3mph /  4.8km/h 94% 0.00in /  0mm 18 W/m2
05:30 58.5 °F /  14.7 °C 56.7 °F /  13.7 °C 30.06in /  1017.8hPa WNW 1mph /  1.6km/h 3mph /  4.8km/h 94% 0.00in /  0mm 26 W/m2
05:40 58.5 °F /  14.7 °C 57 °F /  13.9 °C 30.06in /  1017.8hPa WNW 1mph /  1.6km/h 4mph /  6.4km/h 95% 0.00in /  0mm 34 W/m2
05:50 58.6 °F /  14.8 °C 57.2 °F /  14 °C 30.07in /  1018.2hPa WNW 2mph /  3.2km/h 5mph /  8km/h 95% 0.00in /  0mm 45 W/m2
06:00 59 °F /  15 °C 57.9 °F /  14.4 °C 30.07in /  1018.2hPa WNW 2mph /  3.2km/h 4mph /  6.4km/h 96% 0.00in /  0mm 52 W/m2
06:10 59.2 °F /  15.1 °C 57.7 °F /  14.3 °C 30.07in /  1018.2hPa West 1mph /  1.6km/h 3mph /  4.8km/h 95% 0.00in /  0mm 92 W/m2
06:20 59.2 °F /  15.1 °C 57.7 °F /  14.3 °C 30.07in /  1018.2hPa WNW 1mph /  1.6km/h 2mph /  3.2km/h 95% 0.00in /  0mm 130 W/m2
06:30 59.4 °F /  15.2 °C 57.9 °F /  14.4 °C 30.07in /  1018.2hPa WNW 1mph /  1.6km/h 2mph /  3.2km/h 95% 0.00in /  0mm 156 W/m2
06:40 59.7 °F /  15.4 °C 58.6 °F /  14.8 °C 30.08in /  1018.5hPa West 1mph /  1.6km/h 4mph /  6.4km/h 96% 0.00in /  0mm 184 W/m2
06:50 60.3 °F /  15.7 °C 59.1 °F /  15.1 °C 30.08in /  1018.5hPa WNW 1mph /  1.6km/h 3mph /  4.8km/h 96% 0.00in /  0mm 213 W/m2
07:00 60.8 °F /  16 °C 59.7 °F /  15.4 °C 30.08in /  1018.5hPa West 1mph /  1.6km/h 3mph /  4.8km/h 96% 0.00in /  0mm 245 W/m2
07:10 61.7 °F /  16.5 °C 60.5 °F /  15.8 °C 30.08in /  1018.5hPa NW 1mph /  1.6km/h 3mph /  4.8km/h 96% 0.00in /  0mm 281 W/m2
07:20 62.4 °F /  16.9 °C 61 °F /  16.1 °C 30.08in /  1018.5hPa NW 1mph /  1.6km/h 4mph /  6.4km/h 95% 0.00in /  0mm 316 W/m2
07:30 63.5 °F /  17.5 °C 62 °F /  16.7 °C 30.08in /  1018.5hPa West 2mph /  3.2km/h 4mph /  6.4km/h 95% 0.00in /  0mm 347 W/m2
07:40 64.4 °F /  18 °C 62.6 °F /  17 °C 30.08in /  1018.5hPa West 1mph /  1.6km/h 3mph /  4.8km/h 94% 0.00in /  0mm 388 W/m2
07:50 65.1 °F /  18.4 °C 62.4 °F /  16.9 °C 30.08in /  1018.5hPa WNW 2mph /  3.2km/h 4mph /  6.4km/h 91% 0.00in /  0mm 429 W/m2
08:00 66 °F /  18.9 °C 63 °F /  17.2 °C 30.08in /  1018.5hPa West 1mph /  1.6km/h 3mph /  4.8km/h 90% 0.00in /  0mm 468 W/m2
08:10 66.9 °F /  19.4 °C 63.5 °F /  17.5 °C 30.08in /  1018.5hPa West 1mph /  1.6km/h 3mph /  4.8km/h 89% 0.00in /  0mm 503 W/m2
08:20 67.6 °F /  19.8 °C 64 °F /  17.8 °C 30.08in /  1018.5hPa Calm   5mph /  8km/h 88% 0.00in /  0mm 537 W/m2
08:30 68.5 °F /  20.3 °C 64.2 °F /  17.9 °C 30.08in /  1018.5hPa Calm   4mph /  6.4km/h 86% 0.00in /  0mm 572 W/m2
08:40 69.6 °F /  20.9 °C 64.9 °F /  18.3 °C 30.08in /  1018.5hPa West 1mph /  1.6km/h 4mph /  6.4km/h 85% 0.00in /  0mm 602 W/m2
Knjazevac, Serbia
Compliments of Weather Underground - 2 mb